PWSweather.com
Personal Weather Stations
Station Observations
PITCARMI1
La Serra, CarmignanoIT 59015

La SerraCarmignanoIT 59015

Lat: 43.804429, Lon: 11.027222

Elevation: 525

Station Type: Davis Vantage Vue

http://www.meteocarmignano.it

High Low Average
Temperature 50.2°F10.1°C 45.5°F7.5°C 47.7°F8.7°C
Dew Point 45.7°F7.6°C 42.4°F5.8°C 44.2°F6.8°C
Winds 1.0 mph 1.6 kmh Calm Calm Calm SSWCalm SSW
Wind Gusts 1.0 mph1.6 kmh -- 1.0 mph1.6 kmh
Humidity 90% 84% 88%
Pressure 29.70 in1005.8 mb 29.68 in1005.1 mb -
Precipitation 0.00 in0.0 mm - -
Hour Temp Dew Point Humidity Winds Wind Gusts Pressure Precip Precip Rate Daily Precip Total
12:00 AM 49.1°F9.5°C 45.7°F7.6°C 88% 0.1 mph WSW0.2 kmh WSW -- 29.70 in1005.8 mb 0.00 in0.0 mm 0.00 in/hr0.0 mm/hr 0.00 in0.0 mm
12:30 AM 50.2°F10.1°C 45.6°F7.6°C 84% 0.1 mph N0.2 kmh N 1.0 mph1.6 kmh 29.69 in1005.4 mb 0.00 in0.0 mm 0.00 in/hr0.0 mm/hr 0.00 in0.0 mm
01:00 AM 49.1°F9.5°C 45.1°F7.3°C 86% Calm Calm 1.0 mph1.6 kmh 29.69 in1005.4 mb 0.00 in0.0 mm 0.00 in/hr0.0 mm/hr 0.00 in0.0 mm
01:30 AM 47.8°F8.8°C 44.4°F6.9°C 88% 0.1 mph E0.2 kmh E 1.0 mph1.6 kmh 29.69 in1005.4 mb 0.00 in0.0 mm 0.00 in/hr0.0 mm/hr 0.00 in0.0 mm
02:00 AM 48.1°F8.9°C 44.4°F6.9°C 87% Calm Calm -- 29.68 in1005.1 mb 0.00 in0.0 mm 0.00 in/hr0.0 mm/hr 0.00 in0.0 mm
02:30 AM 47.2°F8.4°C 44.4°F6.9°C 90% Calm Calm -- 29.68 in1005.1 mb 0.00 in0.0 mm 0.00 in/hr0.0 mm/hr 0.00 in0.0 mm
03:00 AM 47.2°F8.4°C 44.4°F6.9°C 90% 0.9 mph WNW1.4 kmh WNW 1.0 mph1.6 kmh 29.69 in1005.4 mb 0.00 in0.0 mm 0.00 in/hr0.0 mm/hr 0.00 in0.0 mm
03:30 AM 47.8°F8.8°C 44.1°F6.7°C 87% Calm Calm 1.0 mph1.6 kmh 29.68 in1005.1 mb 0.00 in0.0 mm 0.00 in/hr0.0 mm/hr 0.00 in0.0 mm
04:00 AM 47.5°F8.6°C 44.1°F6.7°C 88% 1.0 mph W1.6 kmh W 1.0 mph1.6 kmh 29.68 in1005.1 mb 0.00 in0.0 mm 0.00 in/hr0.0 mm/hr 0.00 in0.0 mm
04:30 AM 46.7°F8.2°C 43.3°F6.3°C 88% 0.4 mph W0.6 kmh W 1.0 mph1.6 kmh 29.68 in1005.1 mb 0.00 in0.0 mm 0.00 in/hr0.0 mm/hr 0.00 in0.0 mm
05:00 AM 46.8°F8.2°C 43.7°F6.5°C 89% Calm Calm -- 29.68 in1005.1 mb 0.00 in0.0 mm 0.00 in/hr0.0 mm/hr 0.00 in0.0 mm
05:30 AM 47.5°F8.6°C 43.5°F6.4°C 86% Calm Calm -- 29.69 in1005.4 mb 0.00 in0.0 mm 0.00 in/hr0.0 mm/hr 0.00 in0.0 mm
06:00 AM 45.5°F7.5°C 42.4°F5.8°C 89% 0.2 mph ENE0.3 kmh ENE 1.0 mph1.6 kmh 29.69 in1005.4 mb 0.00 in0.0 mm 0.00 in/hr0.0 mm/hr 0.00 in0.0 mm
06:30 AM 49.0°F9.4°C 46.2°F7.9°C 90% 0.1 mph ENE0.2 kmh ENE 1.0 mph1.6 kmh 29.69 in1005.4 mb 0.00 in0.0 mm 0.00 in/hr0.0 mm/hr 0.00 in0.0 mm
07:00 AM 48.9°F9.4°C 45.8°F7.7°C 89% 0.2 mph WSW0.3 kmh WSW 1.0 mph1.6 kmh 29.70 in1005.8 mb 0.00 in0.0 mm 0.00 in/hr0.0 mm/hr 0.00 in0.0 mm
07:30 AM 51.0°F10.6°C 46.0°F7.8°C 83% 0.9 mph WSW1.4 kmh WSW 1.0 mph1.6 kmh 29.70 in1005.8 mb 0.00 in0.0 mm 0.00 in/hr0.0 mm/hr 0.00 in0.0 mm
08:00 AM 53.8°F12.1°C 47.4°F8.6°C 79% Calm Calm 1.0 mph1.6 kmh 29.71 in1006.1 mb 0.00 in0.0 mm 0.00 in/hr0.0 mm/hr 0.00 in0.0 mm
08:30 AM 55.2°F12.9°C 47.8°F8.8°C 76% 0.2 mph NNE0.3 kmh NNE 1.0 mph1.6 kmh 29.71 in1006.1 mb 0.00 in0.0 mm 0.00 in/hr0.0 mm/hr 0.00 in0.0 mm
09:00 AM 57.1°F13.9°C 48.5°F9.2°C 73% 1.0 mph NE1.6 kmh NE 1.0 mph1.6 kmh 29.71 in1006.1 mb 0.00 in0.0 mm 0.00 in/hr0.0 mm/hr 0.00 in0.0 mm
09:30 AM 58.1°F14.5°C 48.8°F9.3°C 71% 3.4 mph E5.5 kmh E 4.0 mph6.4 kmh 29.70 in1005.8 mb 0.00 in0.0 mm 0.00 in/hr0.0 mm/hr 0.00 in0.0 mm
10:00 AM 61.2°F16.2°C 50.1°F10.1°C 67% 0.5 mph E0.8 kmh E -- 29.70 in1005.8 mb 0.00 in0.0 mm 0.00 in/hr0.0 mm/hr 0.00 in0.0 mm
10:30 AM 62.8°F17.1°C 49.1°F9.5°C 61% 2.2 mph E3.5 kmh E 5.0 mph8.0 kmh 29.70 in1005.8 mb 0.00 in0.0 mm 0.00 in/hr0.0 mm/hr 0.00 in0.0 mm
11:00 AM 63.1°F17.3°C 47.6°F8.7°C 57% 1.3 mph E2.1 kmh E 4.0 mph6.4 kmh 29.70 in1005.8 mb 0.00 in0.0 mm 0.00 in/hr0.0 mm/hr 0.00 in0.0 mm
11:30 AM 65.1°F18.4°C 47.1°F8.4°C 52% 1.9 mph E3.1 kmh E 4.0 mph6.4 kmh 29.70 in1005.8 mb 0.00 in0.0 mm 0.00 in/hr0.0 mm/hr 0.00 in0.0 mm
12:00 PM 66.4°F19.1°C 45.0°F7.2°C 46% 1.6 mph SW2.6 kmh SW 2.0 mph3.2 kmh 29.70 in1005.8 mb 0.00 in0.0 mm 0.00 in/hr0.0 mm/hr 0.00 in0.0 mm
12:30 PM 65.1°F18.4°C 45.5°F7.5°C 49% 6.7 mph SW10.8 kmh SW 9.0 mph14.5 kmh 29.70 in1005.8 mb 0.00 in0.0 mm 0.00 in/hr0.0 mm/hr 0.00 in0.0 mm
01:00 PM 68.1°F20.1°C 46.6°F8.1°C 46% 1.5 mph E2.4 kmh E 3.0 mph4.8 kmh 29.70 in1005.8 mb 0.00 in0.0 mm 0.00 in/hr0.0 mm/hr 0.00 in0.0 mm
01:30 PM 68.6°F20.3°C 45.8°F7.7°C 44% 0.8 mph SW1.3 kmh SW 2.0 mph3.2 kmh 29.69 in1005.4 mb 0.00 in0.0 mm 0.00 in/hr0.0 mm/hr 0.00 in0.0 mm
02:00 PM 66.0°F18.9°C 47.4°F8.6°C 51% 2.6 mph SW4.2 kmh SW 4.0 mph6.4 kmh 29.69 in1005.4 mb 0.00 in0.0 mm 0.00 in/hr0.0 mm/hr 0.00 in0.0 mm
02:30 PM 66.7°F19.3°C 47.5°F8.6°C 50% 2.5 mph WSW4.0 kmh WSW 5.0 mph8.0 kmh 29.68 in1005.1 mb 0.00 in0.0 mm 0.00 in/hr0.0 mm/hr 0.00 in0.0 mm
03:00 PM 67.0°F19.4°C 47.2°F8.4°C 49% 0.6 mph SW1.0 kmh SW 2.0 mph3.2 kmh 29.67 in1004.7 mb 0.00 in0.0 mm 0.00 in/hr0.0 mm/hr 0.00 in0.0 mm
03:30 PM 66.1°F18.9°C 49.0°F9.4°C 54% 2.2 mph SW3.5 kmh SW 3.0 mph4.8 kmh 29.66 in1004.4 mb 0.00 in0.0 mm 0.00 in/hr0.0 mm/hr 0.00 in0.0 mm
04:00 PM 65.8°F18.8°C 49.2°F9.6°C 55% 2.0 mph SW3.2 kmh SW 5.0 mph8.0 kmh 29.67 in1004.7 mb 0.00 in0.0 mm 0.00 in/hr0.0 mm/hr 0.00 in0.0 mm
04:30 PM 65.9°F18.8°C 48.3°F9.1°C 53% 1.6 mph SW2.6 kmh SW 3.0 mph4.8 kmh 29.66 in1004.4 mb 0.00 in0.0 mm 0.00 in/hr0.0 mm/hr 0.00 in0.0 mm
05:00 PM 64.8°F18.2°C 48.2°F9.0°C 55% 3.0 mph SW4.8 kmh SW 5.0 mph8.0 kmh 29.67 in1004.7 mb 0.00 in0.0 mm 0.00 in/hr0.0 mm/hr 0.00 in0.0 mm
05:30 PM 64.9°F18.3°C 48.3°F9.1°C 55% 1.8 mph SW2.9 kmh SW 3.0 mph4.8 kmh 29.67 in1004.7 mb 0.00 in0.0 mm 0.00 in/hr0.0 mm/hr 0.00 in0.0 mm
06:00 PM 67.3°F19.6°C 47.5°F8.6°C 49% 0.1 mph SW0.2 kmh SW -- 29.66 in1004.4 mb 0.00 in0.0 mm 0.00 in/hr0.0 mm/hr 0.00 in0.0 mm
06:30 PM 66.2°F19.0°C 47.0°F8.3°C 50% 0.2 mph SW0.3 kmh SW 1.0 mph1.6 kmh 29.66 in1004.4 mb 0.00 in0.0 mm 0.00 in/hr0.0 mm/hr 0.00 in0.0 mm
07:00 PM 61.8°F16.6°C 47.8°F8.8°C 60% 0.2 mph SW0.3 kmh SW 1.0 mph1.6 kmh 29.67 in1004.7 mb 0.00 in0.0 mm 0.00 in/hr0.0 mm/hr 0.00 in0.0 mm
07:30 PM 58.7°F14.8°C 48.1°F8.9°C 68% 0.1 mph SW0.2 kmh SW 1.0 mph1.6 kmh 29.68 in1005.1 mb 0.00 in0.0 mm 0.00 in/hr0.0 mm/hr 0.00 in0.0 mm
08:00 PM 58.9°F14.9°C 49.5°F9.7°C 71% 0.4 mph WSW0.6 kmh WSW 1.0 mph1.6 kmh 29.69 in1005.4 mb 0.00 in0.0 mm 0.00 in/hr0.0 mm/hr 0.00 in0.0 mm
08:30 PM 57.7°F14.3°C 49.5°F9.7°C 74% 0.4 mph SW0.6 kmh SW 1.0 mph1.6 kmh 29.69 in1005.4 mb 0.00 in0.0 mm 0.00 in/hr0.0 mm/hr 0.00 in0.0 mm
09:00 PM 56.7°F13.7°C 49.2°F9.6°C 76% 0.2 mph SW0.3 kmh SW -- 29.70 in1005.8 mb 0.00 in0.0 mm 0.00 in/hr0.0 mm/hr 0.00 in0.0 mm
09:30 PM 55.4°F13.0°C 49.4°F9.7°C 80% 0.3 mph SW0.5 kmh SW 2.0 mph3.2 kmh 29.70 in1005.8 mb 0.00 in0.0 mm 0.00 in/hr0.0 mm/hr 0.00 in0.0 mm
10:00 PM 55.7°F13.2°C 50.0°F10.0°C 81% 0.9 mph SW1.4 kmh SW 2.0 mph3.2 kmh 29.71 in1006.1 mb 0.00 in0.0 mm 0.00 in/hr0.0 mm/hr 0.00 in0.0 mm
10:30 PM 54.9°F12.7°C 49.5°F9.7°C 82% 1.0 mph NW1.6 kmh NW 1.0 mph1.6 kmh 29.70 in1005.8 mb 0.00 in0.0 mm 0.00 in/hr0.0 mm/hr 0.00 in0.0 mm
11:00 PM 55.5°F13.1°C 50.1°F10.1°C 82% Calm Calm -- 29.71 in1006.1 mb 0.00 in0.0 mm 0.00 in/hr0.0 mm/hr 0.00 in0.0 mm
11:30 PM 55.3°F12.9°C 49.5°F9.7°C 81% Calm Calm -- 29.71 in1006.1 mb 0.00 in0.0 mm 0.00 in/hr0.0 mm/hr 0.00 in0.0 mm